Terminal Aerodrome Forecast
Issued by NWS

Home | Current Version | Previous Version | Text Only | Print | Product List | Glossary On
Versions: 1 2 3 4 5 6 7 8 9 10 11 12 13 14 15 16 17 18 19 20
000
FTUS46 KSEW 291328 AAC
TAFHQM
TAF AMD
KHQM 291328Z 2913/3012 15025G35KT 5SM -RA BR SCT015 OVC030
      TEMPO 2913/2915 2SM +RA BR BKN015 OVC030
     FM291500 15025G35KT 4SM -RA OVC020
     FM291800 18020G30KT P6SM -SHRA BKN025 OVC040
     FM292300 18015G25KT 5SM -RA OVC020=

USA.gov is the U.S. government's official web portal to all federal, state and local government web resources and services.